createdAt,value
2022-10-23T00:01:26.465Z,80.23
2022-10-23T00:04:03.126Z,80.41
2022-10-23T00:06:30.113Z,80.24
2022-10-23T00:08:56.682Z,80.30
2022-10-23T00:11:26.006Z,80.38
2022-10-23T00:13:54.765Z,80.35
2022-10-23T00:16:21.359Z,80.50
2022-10-23T00:18:47.892Z,80.57
2022-10-23T00:21:15.279Z,80.42
2022-10-23T00:23:41.819Z,80.46
2022-10-23T00:26:08.532Z,80.39
2022-10-23T00:28:35.114Z,80.53
2022-10-23T00:31:02.408Z,80.06
2022-10-23T00:33:28.991Z,79.85
2022-10-23T00:35:55.488Z,80.07
2022-10-23T00:38:22.005Z,79.96
2022-10-23T00:43:35.637Z,80.27
2022-10-23T00:46:02.132Z,80.64
2022-10-23T00:48:28.703Z,80.96
2022-10-23T00:50:55.303Z,80.78
2022-10-23T00:53:21.985Z,81.03
2022-10-23T00:55:49.370Z,80.69
2022-10-23T00:58:19.051Z,80.29
2022-10-23T01:00:47.333Z,80.04
2022-10-23T01:03:14.460Z,80.09
2022-10-23T01:05:52.767Z,80.22
2022-10-23T01:08:24.593Z,80.45
2022-10-23T01:10:56.247Z,80.25
2022-10-23T01:13:35.816Z,80.09
2022-10-23T01:16:07.309Z,80.36
2022-10-23T01:18:43.149Z,80.52
2022-10-23T01:21:10.735Z,80.84
2022-10-23T01:23:46.362Z,80.82
2022-10-23T01:26:15.958Z,81.09
2022-10-23T01:28:50.730Z,81.37
2022-10-23T01:31:21.363Z,81.23
2022-10-23T01:33:49.169Z,81.20
2022-10-23T01:36:23.440Z,81.27
2022-10-23T01:38:56.338Z,81.35
2022-10-23T01:41:35.073Z,81.03
2022-10-23T01:44:03.486Z,81.24
2022-10-23T01:46:35.486Z,81.08
2022-10-23T01:49:02.627Z,81.11
2022-10-23T01:51:29.392Z,80.89
2022-10-23T01:54:01.606Z,80.63
2022-10-23T01:56:32.490Z,80.57
2022-10-23T01:59:00.184Z,80.44
2022-10-23T02:01:31.099Z,80.69
2022-10-23T02:06:25.789Z,80.77
2022-10-23T02:08:52.394Z,80.73
2022-10-23T02:11:20.977Z,80.72
2022-10-23T02:14:02.138Z,80.92
2022-10-23T02:16:31.785Z,81.06
2022-10-23T02:19:04.349Z,81.00
2022-10-23T02:21:51.151Z,80.98
2022-10-23T02:24:20.269Z,81.28
2022-10-23T02:26:50.760Z,81.60
2022-10-23T02:29:18.760Z,81.63
2022-10-23T02:31:46.727Z,81.66
2022-10-23T02:34:13.614Z,81.67
2022-10-23T02:36:40.304Z,81.49
2022-10-23T02:39:07.694Z,81.32
2022-10-23T02:41:55.817Z,81.34
2022-10-23T02:44:28.226Z,81.04
2022-10-23T02:47:07.477Z,80.82
2022-10-23T02:49:37.017Z,81.05
2022-10-23T02:52:29.600Z,81.06
2022-10-23T02:55:15.281Z,81.14
2022-10-23T02:57:57.359Z,81.08
2022-10-23T03:00:24.229Z,80.77
2022-10-23T03:02:50.735Z,80.86
2022-10-23T03:05:21.063Z,80.66
2022-10-23T03:07:48.464Z,80.53
2022-10-23T03:10:16.785Z,80.24
2022-10-23T03:12:43.673Z,80.15
2022-10-23T03:15:11.425Z,79.95
2022-10-23T03:17:38.020Z,80.08
2022-10-23T03:20:05.951Z,80.23
2022-10-23T03:22:32.472Z,80.37
2022-10-23T03:25:00.155Z,80.26
2022-10-23T03:30:16.377Z,80.23
2022-10-23T03:32:43.529Z,80.27
2022-10-23T03:35:10.416Z,80.47
2022-10-23T03:37:37.988Z,80.52
2022-10-23T03:40:04.870Z,80.61
2022-10-23T03:42:34.458Z,80.68
2022-10-23T03:45:01.173Z,80.65
2022-10-23T03:47:27.849Z,80.65
2022-10-23T03:49:54.400Z,80.85
2022-10-23T03:55:11.778Z,81.13
2022-10-23T03:57:38.478Z,80.78
2022-10-23T04:00:06.367Z,80.72
2022-10-23T04:02:43.240Z,80.47
2022-10-23T04:05:10.395Z,80.55
2022-10-23T04:07:39.085Z,80.59
2022-10-23T04:10:06.178Z,80.65
2022-10-23T04:12:32.748Z,80.79
2022-10-23T04:14:59.318Z,80.97
2022-10-23T04:17:25.933Z,81.17
2022-10-23T04:19:52.455Z,80.91
2022-10-23T04:22:19.218Z,80.77
2022-10-23T04:24:46.844Z,80.77
2022-10-23T04:27:18.209Z,80.55
2022-10-23T04:29:44.734Z,79.99
2022-10-23T04:32:11.291Z,79.83
2022-10-23T04:34:37.859Z,79.48
2022-10-23T04:37:04.355Z,79.53
2022-10-23T04:39:30.870Z,79.84
2022-10-23T04:41:57.472Z,80.00
2022-10-23T04:44:25.168Z,79.96
2022-10-23T04:46:51.728Z,80.39
2022-10-23T04:49:18.253Z,80.69
2022-10-23T04:52:19.848Z,80.60
2022-10-23T04:55:12.717Z,80.40
2022-10-23T04:57:44.119Z,80.14
2022-10-23T05:00:12.605Z,80.13
2022-10-23T05:02:44.163Z,80.44
2022-10-23T05:05:13.680Z,80.33
2022-10-23T05:08:00.881Z,80.14
2022-10-23T05:10:59.597Z,80.16
2022-10-23T05:13:26.325Z,80.41
2022-10-23T05:15:53.131Z,80.56
2022-10-23T05:18:36.272Z,80.65
2022-10-23T05:21:07.943Z,80.45
2022-10-23T05:23:34.535Z,80.33
2022-10-23T05:26:03.443Z,80.54
2022-10-23T05:28:31.374Z,80.58
2022-10-23T05:30:59.128Z,80.67
2022-10-23T05:33:27.504Z,80.57
2022-10-23T05:35:54.076Z,80.53
2022-10-23T05:38:22.064Z,80.63
2022-10-23T05:40:50.564Z,80.87
2022-10-23T05:43:19.022Z,80.94
2022-10-23T05:46:08.921Z,80.66
2022-10-23T05:48:49.812Z,80.50
2022-10-23T05:51:38.815Z,80.43
2022-10-23T05:54:27.934Z,80.54
2022-10-23T05:57:14.757Z,80.58
2022-10-23T05:59:44.208Z,80.64
2022-10-23T06:02:31.027Z,80.47
2022-10-23T06:05:06.357Z,80.46
2022-10-23T06:07:59.211Z,80.30
2022-10-23T06:10:26.232Z,80.39
2022-10-23T06:12:55.374Z,80.33
2022-10-23T06:15:22.093Z,80.26
2022-10-23T06:18:11.232Z,80.33
2022-10-23T06:20:48.901Z,80.33
2022-10-23T06:23:23.330Z,80.06
2022-10-23T06:26:09.330Z,80.12
2022-10-23T06:28:47.496Z,79.89
2022-10-23T06:31:15.000Z,79.94
2022-10-23T06:33:41.781Z,79.71
2022-10-23T06:36:10.754Z,79.88
2022-10-23T06:38:40.718Z,79.32
2022-10-23T06:41:11.375Z,79.31
2022-10-23T06:43:38.236Z,78.98
2022-10-23T06:46:23.986Z,78.96
2022-10-23T06:49:16.504Z,79.15
2022-10-23T06:51:48.358Z,79.21
2022-10-23T06:54:16.530Z,79.44
2022-10-23T06:57:03.234Z,79.54
2022-10-23T06:59:38.481Z,79.53
2022-10-23T07:02:06.503Z,79.18
2022-10-23T07:04:33.280Z,79.09
2022-10-23T07:07:02.084Z,78.98
2022-10-23T07:09:37.708Z,79.10
2022-10-23T07:12:25.890Z,79.06
2022-10-23T07:15:12.413Z,79.26
2022-10-23T07:17:39.016Z,79.20
2022-10-23T07:20:06.235Z,79.00
2022-10-23T07:22:33.497Z,78.77
2022-10-23T07:25:10.404Z,78.46
2022-10-23T07:27:38.615Z,78.39
2022-10-23T07:30:07.781Z,78.32
2022-10-23T07:32:42.321Z,78.09
2022-10-23T07:35:27.685Z,77.97
2022-10-23T07:38:04.668Z,77.87
2022-10-23T07:40:34.873Z,77.80
2022-10-23T07:43:02.874Z,77.36
2022-10-23T07:45:30.407Z,77.46
2022-10-23T07:48:04.209Z,77.35
2022-10-23T07:50:46.818Z,77.35
2022-10-23T07:53:24.645Z,77.24
2022-10-23T07:55:57.934Z,76.83
2022-10-23T07:58:26.699Z,76.30
2022-10-23T08:01:06.426Z,76.17
2022-10-23T08:03:38.328Z,75.88
2022-10-23T08:06:06.168Z,76.18
2022-10-23T08:08:33.620Z,76.93
2022-10-23T08:11:07.687Z,76.93
2022-10-23T08:13:47.893Z,76.16
2022-10-23T08:16:19.579Z,76.53
2022-10-23T08:19:06.245Z,76.29
2022-10-23T08:21:34.763Z,76.38
2022-10-23T08:24:02.328Z,76.20
2022-10-23T08:26:30.311Z,76.27
2022-10-23T08:29:01.928Z,76.04
2022-10-23T08:31:30.233Z,76.03
2022-10-23T08:34:24.078Z,75.83
2022-10-23T08:36:52.479Z,75.88
2022-10-23T08:39:19.091Z,75.80
2022-10-23T08:42:02.047Z,75.67
2022-10-23T08:44:31.896Z,74.98
2022-10-23T08:46:59.405Z,74.61
2022-10-23T08:49:46.523Z,74.97
2022-10-23T08:52:30.499Z,74.85
2022-10-23T08:55:05.634Z,74.85
2022-10-23T08:57:38.781Z,74.85
2022-10-23T09:00:08.935Z,75.06
2022-10-23T09:02:41.067Z,74.96
2022-10-23T09:05:15.119Z,74.84
2022-10-23T09:07:51.578Z,74.66
2022-10-23T09:10:34.807Z,74.54
2022-10-23T09:13:04.042Z,74.67
2022-10-23T09:15:31.873Z,73.66
2022-10-23T09:18:04.759Z,73.67
2022-10-23T09:20:35.675Z,72.75
2022-10-23T09:23:04.433Z,71.95
2022-10-23T09:25:34.264Z,71.49
2022-10-23T09:28:05.333Z,71.09
2022-10-23T09:30:34.365Z,69.92
2022-10-23T09:33:01.221Z,69.90
2022-10-23T09:35:28.754Z,69.46
2022-10-23T09:37:55.546Z,69.15
2022-10-23T09:40:27.287Z,69.38
2022-10-23T09:42:58.407Z,68.82
2022-10-23T09:45:27.986Z,68.11
2022-10-23T09:48:24.411Z,68.61
2022-10-23T09:50:52.350Z,69.23
2022-10-23T09:53:22.174Z,69.21
2022-10-23T09:55:52.885Z,69.58
2022-10-23T09:58:39.809Z,69.69
2022-10-23T10:01:10.656Z,67.56
2022-10-23T10:03:51.822Z,67.73
2022-10-23T10:06:23.671Z,66.81
2022-10-23T10:08:53.008Z,66.38
2022-10-23T10:11:22.739Z,66.44
2022-10-23T10:14:07.282Z,66.62
2022-10-23T10:19:09.822Z,65.01
2022-10-23T10:21:54.950Z,65.08
2022-10-23T10:24:23.574Z,65.55
2022-10-23T10:26:59.158Z,65.71
2022-10-23T10:29:31.800Z,66.02
2022-10-23T10:32:04.961Z,66.46
2022-10-23T10:34:37.627Z,66.40
2022-10-23T10:37:24.602Z,66.91
2022-10-23T10:39:57.465Z,66.58
2022-10-23T10:42:27.282Z,67.05
2022-10-23T10:44:57.626Z,66.07
2022-10-23T10:47:51.842Z,66.65
2022-10-23T10:50:37.953Z,66.33
2022-10-23T10:53:19.552Z,65.77
2022-10-23T10:55:47.231Z,65.53
2022-10-23T10:58:16.256Z,65.21
2022-10-23T11:00:42.966Z,64.64
2022-10-23T11:03:22.331Z,66.01
2022-10-23T11:05:50.643Z,65.49
2022-10-23T11:08:22.408Z,64.98
2022-10-23T11:10:50.720Z,66.20
2022-10-23T11:13:28.842Z,66.98
2022-10-23T11:15:56.632Z,67.37
2022-10-23T11:18:24.498Z,67.06
2022-10-23T11:21:00.083Z,67.04
2022-10-23T11:23:32.530Z,67.38
2022-10-23T11:25:59.076Z,66.52
2022-10-23T11:28:34.841Z,64.48
2022-10-23T11:31:11.885Z,65.03
2022-10-23T11:33:57.585Z,65.16
2022-10-23T11:36:39.399Z,65.69
2022-10-23T11:39:07.413Z,65.94
2022-10-23T11:41:34.761Z,66.66
2022-10-23T11:44:03.632Z,65.86
2022-10-23T11:46:37.058Z,66.03
2022-10-23T11:49:06.134Z,65.33
2022-10-23T11:51:34.359Z,65.08
2022-10-23T11:54:07.923Z,65.12
2022-10-23T11:56:34.538Z,64.25
2022-10-23T11:59:17.248Z,64.64
2022-10-23T12:01:45.581Z,63.95
2022-10-23T12:04:12.375Z,65.25
2022-10-23T12:06:43.049Z,64.90
2022-10-23T12:09:22.322Z,63.92
2022-10-23T12:11:49.411Z,64.11
2022-10-23T12:14:29.907Z,63.72
2022-10-23T12:16:56.597Z,64.37
2022-10-23T12:19:24.190Z,64.40
2022-10-23T12:21:51.421Z,64.86
2022-10-23T12:24:22.488Z,64.96
2022-10-23T12:26:56.781Z,65.57
2022-10-23T12:29:32.961Z,65.92
2022-10-23T12:32:03.807Z,65.76
2022-10-23T12:34:36.478Z,65.97
2022-10-23T12:37:16.479Z,64.82
2022-10-23T12:39:43.205Z,64.19
2022-10-23T12:42:16.055Z,64.81
2022-10-23T12:44:42.811Z,65.17
2022-10-23T12:47:11.757Z,66.58
2022-10-23T12:49:38.266Z,66.11
2022-10-23T12:52:06.050Z,65.29
2022-10-23T12:54:33.909Z,66.14
2022-10-23T12:57:00.382Z,65.91
2022-10-23T12:59:37.051Z,65.09
2022-10-23T13:02:13.990Z,66.12
2022-10-23T13:04:40.606Z,64.19
2022-10-23T13:07:07.111Z,63.88
2022-10-23T13:09:34.672Z,62.99
2022-10-23T13:12:24.662Z,64.06
2022-10-23T13:15:17.795Z,63.58
2022-10-23T13:17:45.746Z,63.27
2022-10-23T13:20:18.507Z,63.95
2022-10-23T13:22:46.461Z,65.50
2022-10-23T13:25:23.936Z,66.46
2022-10-23T13:27:50.598Z,66.57
2022-10-23T13:30:33.424Z,66.87
2022-10-23T13:33:00.051Z,67.57
2022-10-23T13:35:26.787Z,67.18
2022-10-23T13:37:54.405Z,67.83
2022-10-23T13:40:25.725Z,68.16
2022-10-23T13:42:55.532Z,68.40
2022-10-23T13:45:23.461Z,68.70
2022-10-23T13:47:50.179Z,69.08
2022-10-23T13:50:17.217Z,69.08
2022-10-23T13:52:43.865Z,69.46
2022-10-23T13:55:17.166Z,70.27
2022-10-23T13:57:43.940Z,70.45
2022-10-23T14:00:11.117Z,69.89
2022-10-23T14:02:38.504Z,69.84
2022-10-23T14:05:05.150Z,70.14
2022-10-23T14:07:31.627Z,70.24
2022-10-23T14:09:58.192Z,70.33
2022-10-23T14:12:24.712Z,70.44
2022-10-23T14:14:51.953Z,70.52
2022-10-23T14:17:19.140Z,70.48
2022-10-23T14:19:45.878Z,70.97
2022-10-23T14:22:12.391Z,71.08
2022-10-23T14:24:39.032Z,71.49
2022-10-23T14:27:05.595Z,71.94
2022-10-23T14:29:32.188Z,71.92
2022-10-23T14:31:58.755Z,71.80
2022-10-23T14:34:25.402Z,71.52
2022-10-23T14:37:07.352Z,71.33
2022-10-23T14:39:34.453Z,71.24
2022-10-23T14:42:00.983Z,71.39
2022-10-23T14:44:27.719Z,71.37
2022-10-23T14:46:54.242Z,71.74
2022-10-23T14:49:20.851Z,71.17
2022-10-23T14:51:47.385Z,71.12
2022-10-23T14:54:15.778Z,70.91
2022-10-23T14:56:42.337Z,70.98
2022-10-23T14:59:10.814Z,70.96
2022-10-23T15:01:43.806Z,70.35
2022-10-23T15:04:14.452Z,69.60
2022-10-23T15:06:41.988Z,69.82
2022-10-23T15:09:08.925Z,69.68
2022-10-23T15:11:35.521Z,69.93
2022-10-23T15:14:02.019Z,70.19
2022-10-23T15:16:28.629Z,69.93
2022-10-23T15:18:55.151Z,69.92
2022-10-23T15:21:21.721Z,68.91
2022-10-23T15:23:48.382Z,68.96
2022-10-23T15:26:20.133Z,69.67
2022-10-23T15:28:47.409Z,69.88
2022-10-23T15:31:24.059Z,70.33
2022-10-23T15:33:50.587Z,70.88
2022-10-23T15:36:17.105Z,71.27
2022-10-23T15:38:43.585Z,71.42
2022-10-23T15:41:14.385Z,71.63
2022-10-23T15:43:40.957Z,72.04
2022-10-23T15:46:07.496Z,72.21
2022-10-23T15:48:34.139Z,72.47
2022-10-23T15:51:00.718Z,72.58
2022-10-23T15:53:27.214Z,72.74
2022-10-23T15:55:53.847Z,72.97
2022-10-23T15:58:20.621Z,73.06
2022-10-23T16:00:47.180Z,72.83
2022-10-23T16:03:13.703Z,72.87
2022-10-23T16:05:40.208Z,72.97
2022-10-23T16:08:06.745Z,73.30
2022-10-23T16:10:33.430Z,73.54
2022-10-23T16:12:59.932Z,73.77
2022-10-23T16:15:26.733Z,73.86
2022-10-23T16:17:54.264Z,73.94
2022-10-23T16:20:21.344Z,73.92
2022-10-23T16:25:01.730Z,74.07
2022-10-23T16:27:28.335Z,73.04
2022-10-23T16:31:32.499Z,68.86
2022-10-23T16:34:00.480Z,67.97
2022-10-23T16:36:27.488Z,68.68
2022-10-23T16:39:14.048Z,69.65
2022-10-23T16:41:59.220Z,70.50
2022-10-23T16:44:34.965Z,71.74
2022-10-23T16:47:04.288Z,72.32
2022-10-23T16:49:32.247Z,73.07
2022-10-23T16:51:58.970Z,73.43
2022-10-23T16:54:25.614Z,73.33
2022-10-23T16:56:52.284Z,74.02
2022-10-23T16:59:19.271Z,73.53
2022-10-23T17:01:46.070Z,74.00
2022-10-23T17:04:12.803Z,73.78
2022-10-23T17:06:39.546Z,73.44
2022-10-23T17:09:06.873Z,71.78
2022-10-23T17:11:38.472Z,72.23
2022-10-23T17:14:11.372Z,71.17
2022-10-23T17:16:44.612Z,70.94
2022-10-23T17:19:20.858Z,70.81
2022-10-23T17:21:55.338Z,71.42
2022-10-23T17:24:22.920Z,71.44
2022-10-23T17:26:49.645Z,70.73
2022-10-23T17:29:16.521Z,70.50
2022-10-23T17:31:46.008Z,70.76
2022-10-23T17:34:15.627Z,70.60
2022-10-23T17:36:44.974Z,70.89
2022-10-23T17:39:14.150Z,70.90
2022-10-23T17:41:41.591Z,70.79
2022-10-23T17:44:08.477Z,71.22
2022-10-23T17:46:35.204Z,71.89
2022-10-23T17:51:57.182Z,73.23
2022-10-23T17:54:26.072Z,74.25
2022-10-23T17:56:52.817Z,74.24
2022-10-23T17:59:19.817Z,74.97
2022-10-23T18:01:48.389Z,74.79
2022-10-23T18:04:17.227Z,74.28
2022-10-23T18:06:46.390Z,74.54
2022-10-23T18:09:13.676Z,74.63
2022-10-23T18:11:46.908Z,74.26
2022-10-23T18:14:15.120Z,74.83
2022-10-23T18:16:41.956Z,75.18
2022-10-23T18:19:08.878Z,75.01
2022-10-23T18:21:35.992Z,75.09
2022-10-23T18:24:03.498Z,75.42
2022-10-23T18:26:31.453Z,75.47
2022-10-23T18:28:59.171Z,75.49
2022-10-23T18:31:29.667Z,75.50
2022-10-23T18:34:08.188Z,75.24
2022-10-23T18:36:37.353Z,75.15
2022-10-23T18:39:05.469Z,75.19
2022-10-23T18:41:34.216Z,74.86
2022-10-23T18:44:00.997Z,74.60
2022-10-23T18:46:27.904Z,71.56
2022-10-23T18:48:54.596Z,70.02
2022-10-23T18:51:24.148Z,69.83
2022-10-23T18:53:51.733Z,68.99
2022-10-23T18:56:22.889Z,69.43
2022-10-23T18:58:54.928Z,68.40
2022-10-23T19:01:22.508Z,67.80
2022-10-23T19:03:49.470Z,69.61
2022-10-23T19:06:16.604Z,70.11
2022-10-23T19:08:44.217Z,70.52
2022-10-23T19:11:12.339Z,71.24
2022-10-23T19:13:40.798Z,71.94
2022-10-23T19:16:14.031Z,72.54
2022-10-23T19:18:43.018Z,72.43
2022-10-23T19:21:09.795Z,72.71
2022-10-23T19:23:36.800Z,72.88
2022-10-23T19:26:09.046Z,72.88
2022-10-23T19:28:37.836Z,72.38
2022-10-23T19:31:05.581Z,73.08
2022-10-23T19:33:32.680Z,73.37
2022-10-23T19:36:03.668Z,73.08
2022-10-23T19:38:32.965Z,73.26
2022-10-23T19:40:59.701Z,73.71
2022-10-23T19:43:26.406Z,74.05
2022-10-23T19:45:53.043Z,74.46
2022-10-23T19:48:19.895Z,74.70
2022-10-23T19:50:46.588Z,74.62
2022-10-23T19:53:13.807Z,74.75
2022-10-23T19:55:40.434Z,74.58
2022-10-23T19:58:07.257Z,74.44
2022-10-23T20:00:33.895Z,73.04
2022-10-23T20:03:00.529Z,73.29
2022-10-23T20:05:27.303Z,72.63
2022-10-23T20:07:54.032Z,73.07
2022-10-23T20:10:20.664Z,72.36
2022-10-23T20:12:56.451Z,72.00
2022-10-23T20:15:23.731Z,71.86
2022-10-23T20:17:50.444Z,71.79
2022-10-23T20:20:17.328Z,71.22
2022-10-23T20:22:44.277Z,70.80
2022-10-23T20:25:11.537Z,70.25
2022-10-23T20:27:38.271Z,70.74
2022-10-23T20:30:05.477Z,70.28
2022-10-23T20:32:33.865Z,69.85
2022-10-23T20:35:00.786Z,68.68
2022-10-23T20:37:28.133Z,68.37
2022-10-23T20:39:55.485Z,66.51
2022-10-23T20:42:22.120Z,64.46
2022-10-23T20:44:48.998Z,64.64
2022-10-23T20:47:15.660Z,64.36
2022-10-23T20:49:42.292Z,63.57
2022-10-23T20:52:09.080Z,63.97
2022-10-23T20:54:38.223Z,63.11
2022-10-23T20:57:05.176Z,62.39
2022-10-23T20:59:31.914Z,62.49
2022-10-23T21:01:58.641Z,62.98
2022-10-23T21:04:27.617Z,62.37
2022-10-23T21:07:11.662Z,61.59
2022-10-23T21:09:39.483Z,62.10
2022-10-23T21:12:06.857Z,62.45
2022-10-23T21:14:34.391Z,61.98
2022-10-23T21:17:01.302Z,61.74
2022-10-23T21:19:28.001Z,62.01
2022-10-23T21:21:55.198Z,61.84
2022-10-23T21:24:21.837Z,61.48
2022-10-23T21:26:48.467Z,61.91
2022-10-23T21:29:19.758Z,61.04
2022-10-23T21:31:58.361Z,61.49
2022-10-23T21:34:26.173Z,61.31
2022-10-23T21:39:39.872Z,60.97
2022-10-23T21:42:06.607Z,60.20
2022-10-23T21:44:33.285Z,59.72
2022-10-23T21:47:00.001Z,60.97
2022-10-23T21:49:26.667Z,60.85
2022-10-23T21:51:55.067Z,59.74
2022-10-23T21:54:22.134Z,60.07
2022-10-23T21:56:50.862Z,60.33
2022-10-23T21:59:24.285Z,60.11
2022-10-23T22:01:51.863Z,60.30
2022-10-23T22:04:20.420Z,59.51
2022-10-23T22:06:48.198Z,59.95
2022-10-23T22:09:19.570Z,59.14
2022-10-23T22:11:48.195Z,58.14
2022-10-23T22:14:14.853Z,59.14
2022-10-23T22:16:42.259Z,60.78
2022-10-23T22:19:11.573Z,59.02
2022-10-23T22:21:38.261Z,60.14
2022-10-23T22:24:05.307Z,60.33
2022-10-23T22:26:35.629Z,59.58
2022-10-23T22:29:06.161Z,59.70
2022-10-23T22:31:34.606Z,60.21
2022-10-23T22:34:13.180Z,59.83
2022-10-23T22:36:49.635Z,60.35
2022-10-23T22:39:16.505Z,60.24
2022-10-23T22:41:47.538Z,60.05
2022-10-23T22:44:17.299Z,59.98
2022-10-23T22:46:44.718Z,59.77
2022-10-23T22:49:11.398Z,59.86
2022-10-23T22:51:39.707Z,60.54
2022-10-23T22:54:06.390Z,59.88
2022-10-23T22:56:34.016Z,59.94
2022-10-23T22:59:00.635Z,59.65
2022-10-23T23:01:33.619Z,60.26
2022-10-23T23:04:08.817Z,59.37
2022-10-23T23:06:47.302Z,60.06
2022-10-23T23:09:17.923Z,59.40
2022-10-23T23:11:51.524Z,60.61
2022-10-23T23:14:23.195Z,60.67
2022-10-23T23:16:54.564Z,60.46
2022-10-23T23:19:23.029Z,59.57
2022-10-23T23:21:50.318Z,59.82
2022-10-23T23:24:17.311Z,60.01
2022-10-23T23:26:43.923Z,59.98
2022-10-23T23:29:10.796Z,60.39
2022-10-23T23:31:37.443Z,60.20
2022-10-23T23:34:04.068Z,60.35
2022-10-23T23:36:30.720Z,60.46
2022-10-23T23:38:57.952Z,60.10
2022-10-23T23:41:26.170Z,60.29
2022-10-23T23:43:56.959Z,59.90
2022-10-23T23:46:23.879Z,59.45
2022-10-23T23:48:50.631Z,60.01
2022-10-23T23:51:23.045Z,59.61
2022-10-23T23:53:49.993Z,58.95
2022-10-23T23:56:17.011Z,60.01
2022-10-23T23:58:43.722Z,60.56
